createdAt,value
2022-10-18T00:05:33.789Z,101310.91
2022-10-18T00:15:39.063Z,101317.59
2022-10-18T00:25:43.023Z,101317.72
2022-10-18T00:35:48.410Z,101315.78
2022-10-18T00:45:52.008Z,101296.28
2022-10-18T00:55:59.307Z,101311.06
2022-10-18T01:06:03.035Z,101282.59
2022-10-18T01:16:16.664Z,101289.97
2022-10-18T01:26:38.244Z,101284.19
2022-10-18T01:36:47.811Z,101275.41
2022-10-18T01:46:53.326Z,101280.59
2022-10-18T01:57:03.376Z,101276.34
2022-10-18T02:07:17.446Z,101276.09
2022-10-18T02:17:23.789Z,101272.63
2022-10-18T02:27:27.802Z,101259.94
2022-10-18T02:37:40.259Z,101257.75
2022-10-18T02:47:50.314Z,101250.25
2022-10-18T02:58:00.657Z,101254.50
2022-10-18T03:08:07.332Z,101249.56
2022-10-18T03:18:14.359Z,101253.09
2022-10-18T03:28:28.134Z,101269.56
2022-10-18T03:38:33.258Z,101296.66
2022-10-18T03:48:36.947Z,101366.56
2022-10-18T03:58:42.169Z,101342.00
2022-10-18T04:08:45.810Z,101293.94
2022-10-18T04:18:51.182Z,101302.31
2022-10-18T04:28:54.801Z,101258.84
2022-10-18T04:39:00.279Z,101302.03
2022-10-18T04:49:04.372Z,101323.00
2022-10-18T04:59:16.370Z,101327.16
2022-10-18T05:09:22.301Z,101343.88
2022-10-18T05:19:27.593Z,101337.22
2022-10-18T05:29:31.655Z,101318.19
2022-10-18T05:39:38.104Z,101307.06
2022-10-18T05:49:42.481Z,101306.44
2022-10-18T05:59:48.162Z,101295.41
2022-10-18T06:09:52.131Z,101289.88
2022-10-18T06:19:57.595Z,101328.28
2022-10-18T06:30:01.250Z,101356.22
2022-10-18T06:40:08.232Z,101343.28
2022-10-18T06:50:13.001Z,101344.38
2022-10-18T07:00:18.547Z,101357.38
2022-10-18T07:10:22.263Z,101405.91
2022-10-18T07:20:27.529Z,101414.72
2022-10-18T07:30:31.374Z,101386.22
2022-10-18T07:40:36.489Z,101396.59
2022-10-18T07:50:40.188Z,101414.75
2022-10-18T08:00:45.449Z,101413.56
2022-10-18T08:10:49.148Z,101406.66
2022-10-18T08:20:54.074Z,101414.22
2022-10-18T08:30:57.829Z,101410.28
2022-10-18T08:41:19.142Z,101430.53
2022-10-18T08:51:30.838Z,101426.03
2022-10-18T09:01:49.959Z,101429.16
2022-10-18T09:12:11.293Z,101440.97
2022-10-18T09:22:23.080Z,101432.22
2022-10-18T09:32:37.099Z,101443.09
2022-10-18T09:42:55.460Z,101438.41
2022-10-18T09:53:09.444Z,101436.28
2022-10-18T10:03:15.647Z,101430.72
2022-10-18T10:13:27.728Z,101429.56
2022-10-18T10:23:37.907Z,101457.38
2022-10-18T10:33:41.692Z,101456.63
2022-10-18T10:43:46.801Z,101449.81
2022-10-18T10:53:59.710Z,101465.09
2022-10-18T11:04:29.223Z,101466.06
2022-10-18T11:14:40.026Z,101463.88
2022-10-18T11:24:45.939Z,101447.66
2022-10-18T11:35:11.887Z,101441.22
2022-10-18T11:55:51.061Z,101449.09
2022-10-18T12:05:59.347Z,101440.25
2022-10-18T12:16:05.553Z,101440.34
2022-10-18T12:26:12.459Z,101429.97
2022-10-18T12:36:34.126Z,101412.56
2022-10-18T12:46:47.589Z,101413.91
2022-10-18T12:56:54.300Z,101386.09
2022-10-18T13:17:38.605Z,101396.03
2022-10-18T13:27:49.313Z,101401.06
2022-10-18T13:38:00.593Z,101394.94
2022-10-18T13:48:46.639Z,101395.38
2022-10-18T13:59:15.460Z,101396.13
2022-10-18T14:19:55.785Z,101396.81
2022-10-18T14:30:15.945Z,101387.38
2022-10-18T14:40:35.704Z,101412.44
2022-10-18T14:50:43.585Z,101412.72
2022-10-18T15:01:07.124Z,101423.72
2022-10-18T15:11:14.698Z,101413.47
2022-10-18T15:21:25.289Z,101414.94
2022-10-18T15:31:33.297Z,101429.56
2022-10-18T15:41:48.838Z,101429.94
2022-10-18T15:52:39.011Z,101435.69
2022-10-18T16:02:44.382Z,101446.81
2022-10-18T16:12:48.286Z,101446.25
2022-10-18T16:22:53.474Z,101447.19
2022-10-18T16:32:57.403Z,101457.69
2022-10-18T16:43:02.739Z,101481.41
2022-10-18T16:53:08.581Z,101490.34
2022-10-18T17:03:14.189Z,101498.09
2022-10-18T17:13:18.390Z,101519.22
2022-10-18T17:23:23.860Z,101530.16
2022-10-18T17:33:28.026Z,101531.25
2022-10-18T17:43:33.018Z,101542.13
2022-10-18T17:53:36.811Z,101540.88
2022-10-18T18:03:42.268Z,101541.19
2022-10-18T18:13:48.483Z,101545.84
2022-10-18T18:23:57.174Z,101556.50
2022-10-18T18:34:00.822Z,101554.69
2022-10-18T18:44:07.263Z,101556.00
2022-10-18T18:54:13.771Z,101556.94
2022-10-18T19:04:18.858Z,101559.56
2022-10-18T19:14:24.700Z,101559.72
2022-10-18T19:24:32.066Z,101556.59
2022-10-18T19:34:36.516Z,101563.69
2022-10-18T19:44:44.563Z,101559.34
2022-10-18T19:54:53.905Z,101548.94
2022-10-18T20:05:03.738Z,101554.44
2022-10-18T20:15:09.133Z,101563.00
2022-10-18T20:25:14.113Z,101565.00
2022-10-18T20:35:18.152Z,101564.78
2022-10-18T20:45:23.144Z,101567.13
2022-10-18T20:55:26.841Z,101560.88
2022-10-18T21:05:32.597Z,101567.81
2022-10-18T21:15:36.277Z,101565.91
2022-10-18T21:25:45.903Z,101566.44
2022-10-18T21:35:49.541Z,101561.22
2022-10-18T21:45:59.998Z,101544.94
2022-10-18T21:56:08.857Z,101547.50
2022-10-18T22:06:16.687Z,101537.31
2022-10-18T22:16:21.156Z,101537.13
2022-10-18T22:26:29.827Z,101518.53
2022-10-18T22:36:35.282Z,101527.94
2022-10-18T22:46:41.141Z,101524.56
2022-10-18T22:56:44.975Z,101515.56
2022-10-18T23:06:50.775Z,101518.13
2022-10-18T23:16:54.519Z,101511.50
2022-10-18T23:26:59.525Z,101525.13
2022-10-18T23:37:04.266Z,101518.00
2022-10-18T23:47:09.270Z,101528.97
2022-10-18T23:57:13.955Z,101531.38
